Time;durP1;ratioP1;P1;durP2;ratioP2;P2;SDS_P1;SDS_P2;PMS_P1;PMS_P2;Temp;Humidity;BMP_temperature;BMP_pressure;BME280_temperature;BME280_humidity;BME280_pressure;Samples;Min_cycle;Max_cycle;Signal;HPM_P1;HPM_P2
2021/08/30 00:01:42;;;;;;;5.20;3.35;;;;;;;;;;5066308;28;20125;-77
2021/08/30 00:04:26;;;;;;;3.78;2.60;;;;;;;;;;5052147;28;20501;-78
2021/08/30 00:07:10;;;;;;;3.70;2.67;;;;;;;;;;5052042;28;20101;-78
2021/08/30 00:09:55;;;;;;;3.50;2.58;;;;;;;;;;5052332;28;20044;-78
2021/08/30 00:12:40;;;;;;;3.67;2.72;;;;;;;;;;5067401;28;20523;-78
2021/08/30 00:15:25;;;;;;;4.18;2.83;;;;;;;;;;5065335;28;20086;-78
2021/08/30 00:18:10;;;;;;;4.68;2.72;;;;;;;;;;5066770;28;20110;-76
2021/08/30 00:20:55;;;;;;;3.55;2.50;;;;;;;;;;5065733;28;20105;-77
2021/08/30 00:23:39;;;;;;;3.97;3.20;;;;;;;;;;5052051;28;20071;-78
2021/08/30 00:26:24;;;;;;;4.28;2.72;;;;;;;;;;5066211;28;20102;-79
2021/08/30 00:29:08;;;;;;;3.90;2.90;;;;;;;;;;5065849;28;20092;-78
2021/08/30 00:31:53;;;;;;;4.03;2.90;;;;;;;;;;5051810;28;20153;-78
2021/08/30 00:34:37;;;;;;;4.00;2.80;;;;;;;;;;5066875;28;20075;-77
2021/08/30 00:37:22;;;;;;;4.43;2.80;;;;;;;;;;5051736;28;20464;-78
2021/08/30 00:40:07;;;;;;;3.78;2.55;;;;;;;;;;5065934;28;20078;-78
2021/08/30 00:42:51;;;;;;;4.43;2.78;;;;;;;;;;5065887;28;20035;-78
2021/08/30 00:45:36;;;;;;;5.03;2.97;;;;;;;;;;5051645;28;20516;-78
2021/08/30 00:48:21;;;;;;;4.53;2.70;;;;;;;;;;5051550;28;20527;-78
2021/08/30 00:51:05;;;;;;;5.10;3.03;;;;;;;;;;5051597;28;20456;-74
2021/08/30 00:53:50;;;;;;;5.05;2.78;;;;;;;;;;5051745;28;20131;-78
2021/08/30 00:56:35;;;;;;;5.32;3.10;;;;;;;;;;5065797;28;20040;-78
2021/08/30 00:59:20;;;;;;;4.18;2.53;;;;;;;;;;5065598;28;20075;-78
2021/08/30 01:02:05;;;;;;;4.18;2.95;;;;;;;;;;5051868;28;20040;-78
2021/08/30 01:04:49;;;;;;;4.20;3.17;;;;;;;;;;5065742;28;20128;-78
2021/08/30 01:07:52;;;;;;;5.15;3.22;;;;;;;;;;5066596;28;20070;-77
2021/08/30 01:10:38;;;;;;;4.25;2.80;;;;;;;;;;5051499;28;20166;-79
2021/08/30 01:13:43;;;;;;;4.22;2.75;;;;;;;;;;5066599;28;20114;-78
2021/08/30 01:16:28;;;;;;;4.97;2.97;;;;;;;;;;5065506;28;20090;-78
2021/08/30 01:19:15;;;;;;;4.00;2.90;;;;;;;;;;5065488;28;20067;-78
2021/08/30 01:22:00;;;;;;;4.05;3.00;;;;;;;;;;5066408;28;20137;-79
2021/08/30 01:24:45;;;;;;;4.03;2.90;;;;;;;;;;5066317;28;20043;-79
2021/08/30 01:27:30;;;;;;;4.22;2.72;;;;;;;;;;5067090;28;20105;-78
2021/08/30 01:30:15;;;;;;;4.32;2.95;;;;;;;;;;5055170;28;20046;-76
2021/08/30 01:33:02;;;;;;;3.85;2.80;;;;;;;;;;5069231;28;20086;-78
2021/08/30 01:35:47;;;;;;;4.57;2.80;;;;;;;;;;5068938;28;20086;-78
2021/08/30 01:38:31;;;;;;;3.55;2.55;;;;;;;;;;5069021;28;20043;-77
2021/08/30 01:41:16;;;;;;;4.55;2.80;;;;;;;;;;5069206;28;20062;-78
2021/08/30 01:44:01;;;;;;;4.60;2.90;;;;;;;;;;5068846;28;20042;-77
2021/08/30 01:46:45;;;;;;;3.95;2.97;;;;;;;;;;5069889;28;20563;-79
2021/08/30 01:49:30;;;;;;;3.22;2.35;;;;;;;;;;5071178;28;20081;-79
2021/08/30 01:52:15;;;;;;;4.18;2.92;;;;;;;;;;5057063;28;20048;-78
2021/08/30 01:55:05;;;;;;;4.35;2.92;;;;;;;;;;5071081;28;20043;-78
2021/08/30 02:00:49;;;;;;;4.78;2.80;;;;;;;;;;5071175;28;20134;-78
2021/08/30 02:03:34;;;;;;;3.90;2.75;;;;;;;;;;5057117;28;20079;-78
2021/08/30 02:06:18;;;;;;;4.10;2.85;;;;;;;;;;5070876;28;20055;-78
2021/08/30 02:09:03;;;;;;;4.15;2.88;;;;;;;;;;5056719;28;20043;-78
2021/08/30 02:11:48;;;;;;;3.80;2.55;;;;;;;;;;5070616;28;20145;-78
2021/08/30 02:14:32;;;;;;;3.85;3.00;;;;;;;;;;5070751;28;20177;-78
2021/08/30 02:17:18;;;;;;;4.82;2.70;;;;;;;;;;5070578;28;20039;-78
2021/08/30 02:20:03;;;;;;;4.45;2.83;;;;;;;;;;5057118;28;20035;-78
2021/08/30 02:22:48;;;;;;;5.00;2.95;;;;;;;;;;5056486;28;20034;-78
2021/08/30 02:25:32;;;;;;;3.50;2.70;;;;;;;;;;5056064;28;20125;-78
2021/08/30 02:28:17;;;;;;;4.53;2.75;;;;;;;;;;5070526;28;20089;-78
2021/08/30 02:31:01;;;;;;;4.35;2.70;;;;;;;;;;5070411;28;20075;-78
2021/08/30 02:33:46;;;;;;;3.83;2.55;;;;;;;;;;5056441;28;20109;-78
2021/08/30 02:36:30;;;;;;;3.53;2.50;;;;;;;;;;5070243;28;20116;-78
2021/08/30 02:39:15;;;;;;;4.18;2.70;;;;;;;;;;5055550;28;20039;-78
2021/08/30 02:42:00;;;;;;;3.88;2.60;;;;;;;;;;5071308;28;20508;-78
2021/08/30 02:44:44;;;;;;;4.32;2.80;;;;;;;;;;5070442;28;20125;-78
2021/08/30 02:47:29;;;;;;;3.65;2.33;;;;;;;;;;5070104;28;20119;-78
2021/08/30 02:50:13;;;;;;;4.15;2.65;;;;;;;;;;5070102;28;20039;-78
2021/08/30 02:52:58;;;;;;;3.83;2.45;;;;;;;;;;5070046;28;20051;-78
2021/08/30 02:55:43;;;;;;;3.72;2.63;;;;;;;;;;5069995;28;20346;-78
2021/08/30 02:58:28;;;;;;;4.05;2.33;;;;;;;;;;5069946;28;20667;-79
2021/08/30 03:01:12;;;;;;;4.78;2.90;;;;;;;;;;5069930;28;20055;-78
2021/08/30 03:03:57;;;;;;;4.65;2.58;;;;;;;;;;5055701;28;20075;-78
2021/08/30 03:06:41;;;;;;;3.63;2.42;;;;;;;;;;5069744;28;20086;-78
2021/08/30 03:09:26;;;;;;;4.93;2.70;;;;;;;;;;5069800;28;20560;-78
2021/08/30 03:12:11;;;;;;;3.53;2.50;;;;;;;;;;5055530;28;20097;-78
2021/08/30 03:14:56;;;;;;;4.22;2.60;;;;;;;;;;5055729;28;20101;-78
2021/08/30 03:17:41;;;;;;;3.13;2.10;;;;;;;;;;5069503;28;20074;-78
2021/08/30 03:20:26;;;;;;;3.80;2.50;;;;;;;;;;5070084;28;20075;-78
2021/08/30 03:23:11;;;;;;;4.07;2.58;;;;;;;;;;5069489;28;20044;-79
2021/08/30 03:25:55;;;;;;;4.63;2.67;;;;;;;;;;5055364;28;20174;-78
2021/08/30 03:28:39;;;;;;;3.45;2.50;;;;;;;;;;5055316;28;20068;-78
2021/08/30 03:31:26;;;;;;;4.13;2.53;;;;;;;;;;5069251;28;20096;-78
2021/08/30 03:34:11;;;;;;;4.90;2.47;;;;;;;;;;5069248;28;20405;-79
2021/08/30 03:36:56;;;;;;;3.75;2.53;;;;;;;;;;5069241;28;20047;-78
2021/08/30 03:39:44;;;;;;;3.25;2.47;;;;;;;;;;5070220;28;20110;-78
2021/08/30 03:42:29;;;;;;;4.15;2.67;;;;;;;;;;5069156;28;20043;-78
2021/08/30 03:45:13;;;;;;;3.92;2.50;;;;;;;;;;5069069;28;20047;-78
2021/08/30 03:47:58;;;;;;;3.85;2.78;;;;;;;;;;5069054;28;20048;-78
2021/08/30 03:50:44;;;;;;;3.65;2.20;;;;;;;;;;5054084;28;20547;-78
2021/08/30 03:53:29;;;;;;;3.70;2.47;;;;;;;;;;5068965;28;20087;-78
2021/08/30 03:56:14;;;;;;;3.88;2.28;;;;;;;;;;5054921;28;20499;-78
2021/08/30 03:58:59;;;;;;;3.28;2.25;;;;;;;;;;5068880;28;20091;-78
2021/08/30 04:01:44;;;;;;;5.20;2.45;;;;;;;;;;5068872;28;20179;-78
2021/08/30 04:04:28;;;;;;;3.70;2.13;;;;;;;;;;5054843;28;20093;-78
2021/08/30 04:07:13;;;;;;;3.83;2.35;;;;;;;;;;5068791;28;20063;-79
2021/08/30 04:09:57;;;;;;;3.92;2.30;;;;;;;;;;5054703;28;20082;-78
2021/08/30 04:12:42;;;;;;;3.78;2.20;;;;;;;;;;5068690;28;20106;-78
2021/08/30 04:15:27;;;;;;;3.97;2.20;;;;;;;;;;5068632;28;20035;-78
2021/08/30 04:18:12;;;;;;;3.35;2.40;;;;;;;;;;5054626;28;20067;-78
2021/08/30 04:20:57;;;;;;;4.15;2.20;;;;;;;;;;5054581;28;20039;-78
2021/08/30 04:23:41;;;;;;;3.15;2.30;;;;;;;;;;5054453;28;20425;-78
2021/08/30 04:26:26;;;;;;;3.38;2.47;;;;;;;;;;5069102;28;20039;-78
2021/08/30 04:29:10;;;;;;;4.00;2.42;;;;;;;;;;5068467;28;20097;-78
2021/08/30 04:31:55;;;;;;;4.15;2.22;;;;;;;;;;5068514;28;20055;-78
2021/08/30 04:34:41;;;;;;;3.63;2.10;;;;;;;;;;5068445;28;20034;-78
2021/08/30 04:37:26;;;;;;;3.28;2.30;;;;;;;;;;5068457;28;20087;-78
2021/08/30 04:40:11;;;;;;;4.05;2.50;;;;;;;;;;5054376;28;20086;-77
2021/08/30 04:42:56;;;;;;;2.88;2.20;;;;;;;;;;5069483;28;20040;-78
2021/08/30 04:45:41;;;;;;;4.15;2.20;;;;;;;;;;5068331;28;20117;-78
2021/08/30 04:48:26;;;;;;;3.30;2.30;;;;;;;;;;5053572;28;20044;-79
2021/08/30 04:51:10;;;;;;;3.50;2.60;;;;;;;;;;5051972;28;20059;-78
2021/08/30 04:53:55;;;;;;;3.47;2.10;;;;;;;;;;5066751;28;20043;-78
2021/08/30 04:56:40;;;;;;;2.92;2.30;;;;;;;;;;5067248;28;20812;-78
2021/08/30 04:59:25;;;;;;;3.95;2.42;;;;;;;;;;5067406;28;20040;-78
2021/08/30 05:02:09;;;;;;;3.83;2.10;;;;;;;;;;5067145;28;20044;-78
2021/08/30 05:04:55;;;;;;;4.13;2.40;;;;;;;;;;5055801;28;20058;-78
2021/08/30 05:07:40;;;;;;;3.40;2.28;;;;;;;;;;5056133;28;20097;-79
2021/08/30 05:10:25;;;;;;;3.25;2.30;;;;;;;;;;5070747;28;20165;-78
2021/08/30 05:13:09;;;;;;;3.58;2.10;;;;;;;;;;5069698;28;20098;-78
2021/08/30 05:15:53;;;;;;;3.28;1.98;;;;;;;;;;5070597;28;20102;-79
2021/08/30 05:18:40;;;;;;;3.05;2.15;;;;;;;;;;5069613;28;20127;-77
2021/08/30 05:21:24;;;;;;;3.42;2.25;;;;;;;;;;5069544;28;20413;-78
2021/08/30 05:24:09;;;;;;;3.25;2.30;;;;;;;;;;5070246;28;20059;-78
2021/08/30 05:26:53;;;;;;;3.38;2.10;;;;;;;;;;5070420;28;20575;-76
2021/08/30 05:29:38;;;;;;;4.00;2.30;;;;;;;;;;5054984;28;20106;-78
2021/08/30 05:32:22;;;;;;;3.45;1.85;;;;;;;;;;5069316;28;20512;-79
2021/08/30 05:35:07;;;;;;;4.20;2.10;;;;;;;;;;5068858;28;20043;-78
2021/08/30 05:37:52;;;;;;;2.88;1.90;;;;;;;;;;5069026;28;20109;-79
2021/08/30 05:40:37;;;;;;;2.70;1.98;;;;;;;;;;5070541;28;20504;-79
2021/08/30 05:43:21;;;;;;;2.58;1.90;;;;;;;;;;5054858;28;20059;-79
2021/08/30 05:46:09;;;;;;;5.82;2.60;;;;;;;;;;5069240;28;20117;-78
2021/08/30 05:48:54;;;;;;;2.60;1.92;;;;;;;;;;5070172;28;20063;-75
2021/08/30 05:51:38;;;;;;;3.17;2.28;;;;;;;;;;5068854;28;20055;-78
2021/08/30 05:54:23;;;;;;;3.78;2.10;;;;;;;;;;5068965;28;20087;-78
2021/08/30 05:57:07;;;;;;;4.38;2.42;;;;;;;;;;5069999;28;20047;-79
2021/08/30 05:59:52;;;;;;;3.85;1.90;;;;;;;;;;5054617;28;20090;-79
2021/08/30 06:02:36;;;;;;;4.13;2.25;;;;;;;;;;5054696;28;20043;-78
2021/08/30 06:05:21;;;;;;;3.35;2.20;;;;;;;;;;5054652;28;20129;-79
2021/08/30 06:08:05;;;;;;;4.10;2.30;;;;;;;;;;5069526;28;20040;-78
2021/08/30 06:10:50;;;;;;;4.03;2.40;;;;;;;;;;5069524;28;20064;-79
2021/08/30 06:13:34;;;;;;;4.75;2.17;;;;;;;;;;5053357;28;20060;-78
2021/08/30 06:16:19;;;;;;;3.95;2.30;;;;;;;;;;5068330;28;20094;-78
2021/08/30 06:19:03;;;;;;;4.47;2.00;;;;;;;;;;5068409;28;20106;-79
2021/08/30 06:21:48;;;;;;;3.28;2.38;;;;;;;;;;5068198;28;20041;-78
2021/08/30 06:24:33;;;;;;;4.00;2.60;;;;;;;;;;5054011;28;20093;-79
2021/08/30 06:27:18;;;;;;;7.07;2.40;;;;;;;;;;5054076;28;20043;-78
2021/08/30 06:30:02;;;;;;;4.55;2.28;;;;;;;;;;5068170;28;20046;-78
2021/08/30 06:32:47;;;;;;;4.15;2.20;;;;;;;;;;5069254;28;20051;-78
2021/08/30 06:35:32;;;;;;;3.22;2.35;;;;;;;;;;5069140;28;20583;-79
2021/08/30 06:38:17;;;;;;;4.20;2.40;;;;;;;;;;5054497;28;20607;-78
2021/08/30 06:41:02;;;;;;;3.22;2.03;;;;;;;;;;5053940;28;20071;-79
2021/08/30 06:43:47;;;;;;;3.63;2.15;;;;;;;;;;5054000;28;20050;-76
2021/08/30 06:46:31;;;;;;;3.88;2.22;;;;;;;;;;5068033;28;20067;-79
2021/08/30 06:49:16;;;;;;;3.65;2.50;;;;;;;;;;5067784;28;20051;-77
2021/08/30 06:52:00;;;;;;;3.42;2.10;;;;;;;;;;5067692;28;20055;-78
2021/08/30 06:54:45;;;;;;;3.47;2.13;;;;;;;;;;5067865;28;20057;-78
2021/08/30 06:57:33;;;;;;;3.28;2.10;;;;;;;;;;5068859;28;20059;-79
2021/08/30 07:00:18;;;;;;;3.47;2.10;;;;;;;;;;5067600;28;20106;-78
2021/08/30 07:03:03;;;;;;;3.33;1.90;;;;;;;;;;5067756;28;20043;-78
2021/08/30 07:05:47;;;;;;;2.92;2.03;;;;;;;;;;5053564;28;20166;-78
2021/08/30 07:08:32;;;;;;;6.00;2.40;;;;;;;;;;5053542;28;20547;-79
2021/08/30 07:11:16;;;;;;;4.43;2.35;;;;;;;;;;5068264;28;20098;-79
2021/08/30 07:14:01;;;;;;;5.07;2.30;;;;;;;;;;5067232;28;20527;-79
2021/08/30 07:16:46;;;;;;;3.58;2.40;;;;;;;;;;5068616;28;20461;-78
2021/08/30 07:19:30;;;;;;;5.13;2.40;;;;;;;;;;5053214;28;20054;-79
2021/08/30 07:22:15;;;;;;;3.40;2.10;;;;;;;;;;5067740;28;20158;-78
2021/08/30 07:24:59;;;;;;;3.15;2.10;;;;;;;;;;5067682;28;20098;-76
2021/08/30 07:27:44;;;;;;;3.35;2.10;;;;;;;;;;5067133;28;20524;-79
2021/08/30 07:30:28;;;;;;;3.70;2.08;;;;;;;;;;5067723;28;20048;-79
2021/08/30 07:33:13;;;;;;;2.83;2.03;;;;;;;;;;5067709;28;20055;-78
2021/08/30 07:35:57;;;;;;;3.30;1.88;;;;;;;;;;5067638;28;20448;-78
2021/08/30 07:38:42;;;;;;;3.65;2.22;;;;;;;;;;5067705;28;20141;-78
2021/08/30 07:41:26;;;;;;;2.25;1.65;;;;;;;;;;5068078;28;20079;-78
2021/08/30 07:44:11;;;;;;;3.20;2.03;;;;;;;;;;5066603;28;20055;-79
2021/08/30 07:46:55;;;;;;;2.85;2.00;;;;;;;;;;5052596;28;20482;-78
2021/08/30 07:49:40;;;;;;;3.45;2.17;;;;;;;;;;5066856;28;20373;-79
2021/08/30 07:52:24;;;;;;;3.90;2.25;;;;;;;;;;5067612;28;20558;-76
2021/08/30 07:55:09;;;;;;;3.08;1.88;;;;;;;;;;5052621;28;20043;-79
2021/08/30 07:57:54;;;;;;;2.78;1.98;;;;;;;;;;5067017;28;20039;-78
2021/08/30 08:00:38;;;;;;;3.20;2.00;;;;;;;;;;5066478;28;20090;-79
2021/08/30 08:03:22;;;;;;;3.90;1.98;;;;;;;;;;5052272;28;20437;-79
2021/08/30 08:06:07;;;;;;;4.00;1.85;;;;;;;;;;5066458;28;20055;-79
2021/08/30 08:08:52;;;;;;;5.10;2.20;;;;;;;;;;5066487;28;20052;-79
2021/08/30 08:11:36;;;;;;;3.13;2.00;;;;;;;;;;5066346;28;20428;-79
2021/08/30 08:14:21;;;;;;;3.60;1.98;;;;;;;;;;5067322;28;20496;-78
2021/08/30 08:17:05;;;;;;;2.55;2.08;;;;;;;;;;5066221;28;20051;-77
2021/08/30 08:19:50;;;;;;;3.70;2.17;;;;;;;;;;5066245;28;20048;-79
2021/08/30 08:22:35;;;;;;;2.80;1.92;;;;;;;;;;5067127;28;20043;-78
2021/08/30 08:25:19;;;;;;;3.88;2.00;;;;;;;;;;5067757;28;20046;-78
2021/08/30 08:28:05;;;;;;;5.18;2.10;;;;;;;;;;5066361;28;20091;-77
2021/08/30 08:30:51;;;;;;;3.35;1.92;;;;;;;;;;5065946;28;20044;-77
2021/08/30 08:33:35;;;;;;;3.95;2.05;;;;;;;;;;5052215;28;20116;-78
2021/08/30 08:36:21;;;;;;;3.35;2.22;;;;;;;;;;5067392;28;20039;-77
2021/08/30 08:39:06;;;;;;;3.03;2.08;;;;;;;;;;5073763;28;20496;-78
2021/08/30 08:41:50;;;;;;;3.13;1.88;;;;;;;;;;5072899;28;20120;-76
2021/08/30 08:44:36;;;;;;;3.20;2.13;;;;;;;;;;5073768;28;20110;-77
2021/08/30 08:47:20;;;;;;;2.95;2.00;;;;;;;;;;5072506;28;20413;-76
2021/08/30 08:50:06;;;;;;;3.95;2.00;;;;;;;;;;5072565;28;20043;-75
2021/08/30 08:52:51;;;;;;;2.30;1.77;;;;;;;;;;5072467;28;20055;-76
2021/08/30 08:55:35;;;;;;;4.07;2.10;;;;;;;;;;5073744;28;20109;-76
2021/08/30 08:58:21;;;;;;;2.85;1.80;;;;;;;;;;5072363;28;20052;-76
2021/08/30 09:01:14;;;;;;;5.57;2.30;;;;;;;;;;5072660;28;20118;-76
2021/08/30 09:03:59;;;;;;;3.88;2.00;;;;;;;;;;5072526;28;20121;-77
2021/08/30 09:06:45;;;;;;;4.75;2.10;;;;;;;;;;5072431;28;20042;-76
2021/08/30 09:09:30;;;;;;;3.42;2.13;;;;;;;;;;5058441;28;20043;-76
2021/08/30 09:12:19;;;;;;;3.70;2.10;;;;;;;;;;5072179;28;20093;-77
2021/08/30 09:15:12;;;;;;;3.00;1.90;;;;;;;;;;5072512;28;20097;-76
2021/08/30 09:17:57;;;;;;;2.95;1.90;;;;;;;;;;5058389;28;20629;-77
2021/08/30 09:20:42;;;;;;;3.17;2.03;;;;;;;;;;5058313;28;20524;-77
2021/08/30 09:23:28;;;;;;;3.88;1.77;;;;;;;;;;5073434;28;20724;-77
2021/08/30 09:26:16;;;;;;;2.83;1.80;;;;;;;;;;5072183;28;20042;-73
2021/08/30 09:29:01;;;;;;;3.42;1.90;;;;;;;;;;5072334;28;20043;-76
2021/08/30 09:32:04;;;;;;;2.50;1.65;;;;;;;;;;5072183;28;20155;-76
2021/08/30 09:34:53;;;;;;;3.33;1.65;;;;;;;;;;5072377;28;20122;-76
2021/08/30 09:37:38;;;;;;;2.53;1.98;;;;;;;;;;5070481;28;20504;-76
2021/08/30 09:40:24;;;;;;;2.65;1.90;;;;;;;;;;5072393;28;20142;-76
2021/08/30 09:43:17;;;;;;;4.22;2.17;;;;;;;;;;5071982;28;20115;-76
2021/08/30 09:46:03;;;;;;;3.05;1.73;;;;;;;;;;5057901;28;20547;-76
2021/08/30 09:48:52;;;;;;;2.53;1.88;;;;;;;;;;5070531;28;20052;-76
2021/08/30 09:51:38;;;;;;;3.28;1.80;;;;;;;;;;5069715;28;20363;-76
2021/08/30 09:54:23;;;;;;;2.67;1.80;;;;;;;;;;5068744;28;20063;-76
2021/08/30 09:57:08;;;;;;;4.05;2.35;;;;;;;;;;5055011;28;20046;-76
2021/08/30 09:59:53;;;;;;;3.35;1.77;;;;;;;;;;5054756;28;20149;-77
2021/08/30 10:02:37;;;;;;;4.22;2.03;;;;;;;;;;5068657;28;20047;-76
2021/08/30 10:05:22;;;;;;;2.97;1.65;;;;;;;;;;5069793;28;20039;-76
2021/08/30 10:08:07;;;;;;;2.70;1.70;;;;;;;;;;5068692;28;20038;-76
2021/08/30 10:10:52;;;;;;;3.10;1.83;;;;;;;;;;5054541;28;20530;-76
2021/08/30 10:13:37;;;;;;;3.10;2.10;;;;;;;;;;5054285;28;20098;-77
2021/08/30 10:16:21;;;;;;;3.22;1.80;;;;;;;;;;5054226;28;20121;-73
2021/08/30 10:19:06;;;;;;;2.65;1.83;;;;;;;;;;5068190;28;20463;-76
2021/08/30 10:21:51;;;;;;;2.70;1.85;;;;;;;;;;5069448;28;20055;-74
2021/08/30 10:24:40;;;;;;;2.83;1.70;;;;;;;;;;5068052;28;20066;-76
2021/08/30 10:27:28;;;;;;;2.58;1.90;;;;;;;;;;5054331;28;20126;-76
2021/08/30 10:30:13;;;;;;;2.55;1.90;;;;;;;;;;5067720;28;20144;-76
2021/08/30 10:32:59;;;;;;;2.53;1.80;;;;;;;;;;5068025;28;20127;-77
2021/08/30 10:35:44;;;;;;;3.17;1.98;;;;;;;;;;5068001;28;20043;-77
2021/08/30 10:38:28;;;;;;;2.75;2.00;;;;;;;;;;5068102;28;20075;-76
2021/08/30 10:41:16;;;;;;;3.13;1.90;;;;;;;;;;5067786;28;20035;-76
2021/08/30 10:44:06;;;;;;;3.42;1.80;;;;;;;;;;5067861;28;20116;-77
2021/08/30 10:47:00;;;;;;;2.70;1.70;;;;;;;;;;5067866;28;20108;-76
2021/08/30 10:49:48;;;;;;;3.47;1.80;;;;;;;;;;5067623;28;20047;-74
2021/08/30 10:52:36;;;;;;;3.60;1.80;;;;;;;;;;5053740;28;20067;-76
2021/08/30 10:55:21;;;;;;;2.22;1.60;;;;;;;;;;5067870;28;20067;-76
2021/08/30 10:58:16;;;;;;;2.97;1.80;;;;;;;;;;5053481;28;20067;-76
2021/08/30 11:01:10;;;;;;;2.80;1.80;;;;;;;;;;5052852;28;20462;-77
2021/08/30 11:03:55;;;;;;;3.15;1.80;;;;;;;;;;5067415;28;20460;-77
2021/08/30 11:06:39;;;;;;;2.78;1.75;;;;;;;;;;5067249;28;20047;-76
2021/08/30 11:09:24;;;;;;;2.35;1.60;;;;;;;;;;5067413;28;20412;-76
2021/08/30 11:12:12;;;;;;;2.60;1.75;;;;;;;;;;5053084;28;20059;-76
2021/08/30 11:14:57;;;;;;;3.67;1.70;;;;;;;;;;5066955;28;20058;-76
2021/08/30 11:17:41;;;;;;;2.88;1.80;;;;;;;;;;5053242;28;20105;-76
2021/08/30 11:20:26;;;;;;;3.38;1.80;;;;;;;;;;5067177;28;20035;-76
2021/08/30 11:23:14;;;;;;;3.60;1.73;;;;;;;;;;5066868;28;20040;-75
2021/08/30 11:26:05;;;;;;;2.85;1.70;;;;;;;;;;5066894;28;20124;-76
2021/08/30 11:28:59;;;;;;;2.08;1.70;;;;;;;;;;5067121;28;20090;-76
2021/08/30 11:31:44;;;;;;;3.08;1.77;;;;;;;;;;5066841;28;20148;-77
2021/08/30 11:34:33;;;;;;;2.70;1.60;;;;;;;;;;5066640;28;20051;-76
2021/08/30 11:37:18;;;;;;;2.05;1.40;;;;;;;;;;5066669;28;20110;-75
2021/08/30 11:40:07;;;;;;;2.42;1.60;;;;;;;;;;5068261;28;20388;-76
2021/08/30 11:42:52;;;;;;;2.83;1.77;;;;;;;;;;5052772;28;20105;-77
2021/08/30 11:45:36;;;;;;;2.53;1.65;;;;;;;;;;5067989;28;20031;-76
2021/08/30 11:48:21;;;;;;;2.80;1.75;;;;;;;;;;5066838;28;20051;-76
2021/08/30 11:51:05;;;;;;;3.97;1.60;;;;;;;;;;5066613;28;20119;-76
2021/08/30 11:53:50;;;;;;;3.10;1.70;;;;;;;;;;5066444;28;20150;-76
2021/08/30 11:56:35;;;;;;;2.38;1.90;;;;;;;;;;5067449;28;20047;-76
2021/08/30 11:59:27;;;;;;;2.60;1.98;;;;;;;;;;5067560;28;20047;-77
2021/08/30 12:02:11;;;;;;;2.88;1.80;;;;;;;;;;5067407;28;20128;-76
2021/08/30 12:05:00;;;;;;;2.90;1.80;;;;;;;;;;5067291;28;20102;-76
2021/08/30 12:07:45;;;;;;;2.95;1.75;;;;;;;;;;5067461;28;20044;-76
2021/08/30 12:10:30;;;;;;;3.33;1.90;;;;;;;;;;5067357;28;20129;-77
2021/08/30 12:13:30;;;;;;;2.42;1.50;;;;;;;;;;5066924;28;20059;-76
2021/08/30 12:16:18;;;;;;;2.97;1.60;;;;;;;;;;5066366;28;20043;-74
2021/08/30 12:19:03;;;;;;;3.28;1.80;;;;;;;;;;5052467;28;20127;-76
2021/08/30 12:21:48;;;;;;;3.15;1.67;;;;;;;;;;5065789;28;20082;-76
2021/08/30 12:24:37;;;;;;;3.13;1.80;;;;;;;;;;5065916;28;20039;-75
2021/08/30 12:27:21;;;;;;;2.60;1.88;;;;;;;;;;5066781;28;20043;-76
2021/08/30 12:30:13;;;;;;;3.72;1.70;;;;;;;;;;5066243;28;20063;-77
2021/08/30 12:33:01;;;;;;;2.30;1.40;;;;;;;;;;5066941;28;20043;-78
2021/08/30 12:35:54;;;;;;;2.22;1.50;;;;;;;;;;5067235;28;20512;-77
2021/08/30 12:38:39;;;;;;;2.67;1.80;;;;;;;;;;5052108;28;20047;-77
2021/08/30 12:41:24;;;;;;;2.63;1.52;;;;;;;;;;5066057;28;20434;-77
2021/08/30 12:44:09;;;;;;;2.42;1.48;;;;;;;;;;5065725;28;20039;-77
2021/08/30 12:46:53;;;;;;;2.53;1.70;;;;;;;;;;5067028;28;20043;-77
2021/08/30 12:49:37;;;;;;;2.63;1.75;;;;;;;;;;5052073;28;20031;-77
2021/08/30 12:52:22;;;;;;;2.28;1.77;;;;;;;;;;5065967;28;20159;-77
2021/08/30 12:55:07;;;;;;;3.38;2.10;;;;;;;;;;5066784;28;20154;-77
2021/08/30 12:57:52;;;;;;;2.05;1.65;;;;;;;;;;5066495;28;20463;-77
2021/08/30 13:00:37;;;;;;;2.50;1.70;;;;;;;;;;5052422;28;20524;-77
2021/08/30 13:03:21;;;;;;;2.75;1.95;;;;;;;;;;5066469;28;20044;-77
2021/08/30 13:06:06;;;;;;;2.95;1.95;;;;;;;;;;5066439;28;20162;-77
2021/08/30 13:08:50;;;;;;;2.45;1.58;;;;;;;;;;5066029;28;20089;-78
2021/08/30 13:11:35;;;;;;;4.10;1.92;;;;;;;;;;5052251;28;20131;-78
2021/08/30 13:14:19;;;;;;;3.17;1.70;;;;;;;;;;5052048;28;20071;-78
2021/08/30 13:17:04;;;;;;;3.13;1.67;;;;;;;;;;5052224;28;20531;-78
2021/08/30 13:19:48;;;;;;;2.25;1.50;;;;;;;;;;5066553;28;20405;-77
2021/08/30 13:22:33;;;;;;;2.95;1.70;;;;;;;;;;5067189;28;20047;-77
2021/08/30 13:25:18;;;;;;;2.97;1.77;;;;;;;;;;5055223;28;20162;-77
2021/08/30 13:28:03;;;;;;;2.95;1.70;;;;;;;;;;5070601;28;20039;-78
2021/08/30 13:30:48;;;;;;;2.33;1.70;;;;;;;;;;5055137;28;20039;-78
2021/08/30 13:33:32;;;;;;;3.45;1.55;;;;;;;;;;5055251;28;20413;-77
2021/08/30 13:36:17;;;;;;;3.05;1.70;;;;;;;;;;5054960;28;20144;-77
2021/08/30 13:39:02;;;;;;;3.78;1.70;;;;;;;;;;5054851;28;20492;-77
2021/08/30 13:41:47;;;;;;;2.47;1.55;;;;;;;;;;5070342;28;20048;-78
2021/08/30 13:44:31;;;;;;;2.65;1.90;;;;;;;;;;5068858;28;20055;-77
2021/08/30 13:47:16;;;;;;;4.32;1.75;;;;;;;;;;5069079;28;20579;-77
2021/08/30 13:50:01;;;;;;;2.47;1.58;;;;;;;;;;5069992;28;20056;-78
2021/08/30 13:52:46;;;;;;;3.30;1.58;;;;;;;;;;5068566;28;20417;-77
2021/08/30 13:55:31;;;;;;;3.20;1.58;;;;;;;;;;5054749;28;20035;-74
2021/08/30 13:58:15;;;;;;;3.63;1.80;;;;;;;;;;5068488;28;20039;-77
2021/08/30 14:01:00;;;;;;;3.03;1.90;;;;;;;;;;5069586;28;20090;-77
2021/08/30 14:03:46;;;;;;;2.85;1.90;;;;;;;;;;5068591;28;20100;-77
2021/08/30 14:06:30;;;;;;;2.38;1.73;;;;;;;;;;5054896;28;20116;-77
2021/08/30 14:09:15;;;;;;;2.58;1.80;;;;;;;;;;5069499;28;20186;-78
2021/08/30 14:11:59;;;;;;;3.28;1.60;;;;;;;;;;5068128;28;20071;-78
2021/08/30 14:14:44;;;;;;;3.15;1.60;;;;;;;;;;5054520;28;20169;-77
2021/08/30 14:17:28;;;;;;;2.97;1.70;;;;;;;;;;5069271;28;20093;-77
2021/08/30 14:20:13;;;;;;;2.92;1.73;;;;;;;;;;5068262;28;20101;-78
2021/08/30 14:22:57;;;;;;;2.05;1.50;;;;;;;;;;5067681;28;20420;-78
2021/08/30 14:25:42;;;;;;;3.10;1.90;;;;;;;;;;5069184;28;20191;-78
2021/08/30 14:28:27;;;;;;;3.65;1.70;;;;;;;;;;5068194;28;20059;-78
2021/08/30 14:31:11;;;;;;;2.47;1.83;;;;;;;;;;5067905;28;20040;-79
2021/08/30 14:33:56;;;;;;;2.30;1.60;;;;;;;;;;5067633;28;20047;-78
2021/08/30 14:36:41;;;;;;;3.00;1.58;;;;;;;;;;5067696;28;20046;-78
2021/08/30 14:39:25;;;;;;;2.38;1.50;;;;;;;;;;5068174;28;20046;-78
2021/08/30 14:42:10;;;;;;;4.20;2.30;;;;;;;;;;5053721;28;20408;-78
2021/08/30 14:44:54;;;;;;;2.75;1.65;;;;;;;;;;5067847;28;20551;-78
2021/08/30 14:47:39;;;;;;;2.35;1.58;;;;;;;;;;5053889;28;20093;-78
2021/08/30 14:50:24;;;;;;;3.15;1.65;;;;;;;;;;5053938;28;20561;-78
2021/08/30 14:53:09;;;;;;;2.83;1.42;;;;;;;;;;5053740;28;20055;-78
2021/08/30 14:55:53;;;;;;;3.25;1.70;;;;;;;;;;5053442;28;20044;-78
2021/08/30 14:58:38;;;;;;;3.00;1.60;;;;;;;;;;5068545;28;20152;-78
2021/08/30 15:01:23;;;;;;;2.45;1.65;;;;;;;;;;5067673;28;20661;-75
2021/08/30 15:04:07;;;;;;;2.88;1.70;;;;;;;;;;5067344;28;20047;-78
2021/08/30 15:06:55;;;;;;;2.55;1.55;;;;;;;;;;5067444;28;20044;-78
2021/08/30 15:09:40;;;;;;;5.97;1.95;;;;;;;;;;5067411;28;20166;-78
2021/08/30 15:12:24;;;;;;;2.55;1.60;;;;;;;;;;5053344;28;20051;-78
2021/08/30 15:15:09;;;;;;;2.70;1.70;;;;;;;;;;5067590;28;20109;-78
2021/08/30 15:17:53;;;;;;;2.42;1.60;;;;;;;;;;5053219;28;20467;-77
2021/08/30 15:20:38;;;;;;;3.05;1.85;;;;;;;;;;5066962;28;20047;-77
2021/08/30 15:23:22;;;;;;;3.47;1.70;;;;;;;;;;5066779;28;20151;-76
2021/08/30 15:26:07;;;;;;;3.25;1.67;;;;;;;;;;5067963;28;20043;-76
2021/08/30 15:29:24;;;;;;;2.13;1.60;;;;;;;;;;5066767;28;20078;-77
2021/08/30 15:32:09;;;;;;;2.35;1.52;;;;;;;;;;5050263;28;20063;-75
2021/08/30 15:34:54;;;;;;;2.88;1.65;;;;;;;;;;5067677;28;20409;-76
2021/08/30 15:37:39;;;;;;;3.20;1.70;;;;;;;;;;5066739;28;20040;-77
2021/08/30 15:40:23;;;;;;;2.83;1.70;;;;;;;;;;5066837;28;20055;-77
2021/08/30 15:43:07;;;;;;;1.88;1.48;;;;;;;;;;5066749;28;20155;-77
2021/08/30 15:45:52;;;;;;;2.30;1.60;;;;;;;;;;5052496;28;20040;-77
2021/08/30 15:48:36;;;;;;;2.20;1.63;;;;;;;;;;5066450;28;20050;-76
2021/08/30 15:51:21;;;;;;;2.50;1.70;;;;;;;;;;5066534;28;20117;-77
2021/08/30 15:54:06;;;;;;;3.05;1.52;;;;;;;;;;5066308;28;20113;-76
2021/08/30 15:56:50;;;;;;;2.50;1.60;;;;;;;;;;5066426;28;20063;-76
2021/08/30 15:59:35;;;;;;;4.43;1.58;;;;;;;;;;5066378;28;20051;-77
2021/08/30 16:02:19;;;;;;;3.08;1.70;;;;;;;;;;5067300;28;20082;-77
2021/08/30 16:05:04;;;;;;;3.00;1.50;;;;;;;;;;5066344;28;20133;-77
2021/08/30 16:07:48;;;;;;;3.05;1.60;;;;;;;;;;5052346;28;20078;-77
2021/08/30 16:10:33;;;;;;;2.30;1.58;;;;;;;;;;5066117;28;20120;-76
2021/08/30 16:13:18;;;;;;;2.88;1.73;;;;;;;;;;5066168;28;20102;-76
2021/08/30 16:16:03;;;;;;;2.38;1.60;;;;;;;;;;5066140;28;20043;-77
2021/08/30 16:18:48;;;;;;;2.63;1.60;;;;;;;;;;5066100;28;20047;-77
2021/08/30 16:21:33;;;;;;;3.47;1.75;;;;;;;;;;5052107;28;20060;-77
2021/08/30 16:24:18;;;;;;;3.10;1.60;;;;;;;;;;5065857;28;20050;-77
2021/08/30 16:27:04;;;;;;;2.55;1.50;;;;;;;;;;5049602;28;20566;-75
2021/08/30 16:29:48;;;;;;;2.92;1.70;;;;;;;;;;5067336;28;20044;-78
2021/08/30 16:32:34;;;;;;;3.03;1.70;;;;;;;;;;5066849;28;20052;-77
2021/08/30 16:35:18;;;;;;;2.47;1.58;;;;;;;;;;5067013;28;20113;-79